Terminal Aerodrome Forecast
Issued by NWS

Home | Current Version | Previous Version | Text Only | Print | Product List | Glossary On
Versions: 1 2 3 4 5 6 7 8 9 10 11 12 13 14
000
FTUS41 KBTV 272325
TAFMSS
TAF
KMSS 272325Z 2800/2824 VRB03KT P6SM OVC035
     FM280600 VRB03KT 5SM BR VCSH OVC030
     FM281100 28006KT P6SM SCT030 BKN050=

USA.gov is the U.S. government's official web portal to all federal, state and local government web resources and services.